Time;durP1;ratioP1;P1;durP2;ratioP2;P2;SDS_P1;SDS_P2;PMS_P1;PMS_P2;Temp;Humidity;BMP_temperature;BMP_pressure;BME280_temperature;BME280_humidity;BME280_pressure;Samples;Min_cycle;Max_cycle;Signal;HPM_P1;HPM_P2
2023/02/19 00:02:39;;;;;;;11.43;2.70;;;9.20;99.90;;;;;;5049530;28;20658;-85
2023/02/19 00:05:05;;;;;;;7.30;1.80;;;9.30;99.90;;;;;;5047134;28;20197;-85
2023/02/19 00:07:31;;;;;;;2.13;1.67;;;9.30;99.90;;;;;;5042001;28;20668;-85
2023/02/19 00:09:57;;;;;;;3.47;3.10;;;9.30;99.90;;;;;;5034275;28;20190;-85
2023/02/19 00:12:23;;;;;;;2.53;2.03;;;9.30;99.90;;;;;;5001125;28;20303;-85
2023/02/19 00:14:48;;;;;;;2.70;1.60;;;9.30;99.90;;;;;;5001241;28;20214;-86
2023/02/19 00:20:56;;;;;;;2.23;2.13;;;9.30;99.90;;;;;;5033667;28;20306;-86
2023/02/19 00:23:22;;;;;;;3.43;1.67;;;9.30;99.90;;;;;;5017311;28;20235;-85
2023/02/19 00:25:47;;;;;;;2.30;1.10;;;9.30;99.90;;;;;;5017382;28;20171;-87
2023/02/19 00:28:54;;;;;;;3.03;2.83;;;9.30;99.90;;;;;;5033699;28;20698;-86
2023/02/19 00:31:26;;;;;;;6.87;1.33;;;9.30;99.90;;;;;;5050069;28;20273;-86
2023/02/19 00:33:57;;;;;;;3.30;1.50;;;9.30;99.90;;;;;;5034256;28;20183;-85
2023/02/19 00:44:41;;;;;;;2.57;1.20;;;9.20;99.90;;;;;;5034333;28;20245;-86
2023/02/19 00:47:09;;;;;;;1.83;1.23;;;9.20;99.90;;;;;;5034055;28;20215;-87
2023/02/19 00:49:34;;;;;;;3.30;1.30;;;9.20;99.90;;;;;;5000280;28;20637;-90
2023/02/19 00:52:00;;;;;;;5.70;1.57;;;9.20;99.90;;;;;;4999452;28;20237;-87
2023/02/19 00:54:26;;;;;;;3.07;2.80;;;9.20;99.90;;;;;;4983726;28;20273;-86
2023/02/19 00:56:52;;;;;;;2.20;1.43;;;9.10;99.90;;;;;;5000569;28;20217;-87
2023/02/19 00:59:23;;;;;;;4.40;1.20;;;9.10;99.90;;;;;;5000916;28;20579;-86
2023/02/19 01:06:05;;;;;;;7.00;1.47;;;9.10;99.90;;;;;;5033981;28;20294;-86
2023/02/19 01:08:32;;;;;;;1.73;1.60;;;9.10;99.90;;;;;;5017456;28;20293;-86
2023/02/19 01:10:58;;;;;;;0.50;0.50;;;9.10;99.90;;;;;;5016736;28;20171;-85
2023/02/19 01:17:14;;;;;;;1.70;1.00;;;9.10;99.90;;;;;;5032940;28;20222;-87
2023/02/19 01:19:40;;;;;;;1.50;0.83;;;9.10;99.90;;;;;;5016768;28;20262;-87
2023/02/19 01:22:05;;;;;;;1.03;0.73;;;9.10;99.90;;;;;;4999994;28;20305;-86
2023/02/19 01:24:36;;;;;;;4.10;3.73;;;9.10;99.90;;;;;;5033342;28;20226;-86
2023/02/19 01:27:02;;;;;;;7.37;1.10;;;9.00;99.90;;;;;;5007181;28;20222;-86
2023/02/19 01:29:28;;;;;;;0.63;0.63;;;9.00;99.90;;;;;;4999321;28;20683;-88
2023/02/19 01:31:53;;;;;;;0.13;0.13;;;9.00;99.90;;;;;;5032145;28;20659;-86
2023/02/19 01:34:19;;;;;;;0.70;0.70;;;9.00;99.90;;;;;;4999531;28;20666;-87
2023/02/19 01:36:45;;;;;;;1.90;0.53;;;8.80;99.90;;;;;;4999358;28;20272;-86
2023/02/19 01:39:10;;;;;;;0.90;0.90;;;8.70;99.90;;;;;;5000173;28;20174;-86
2023/02/19 01:41:38;;;;;;;5.30;0.50;;;8.60;99.90;;;;;;5002477;28;20223;-86
2023/02/19 01:44:07;;;;;;;1.63;0.63;;;8.60;99.90;;;;;;5032367;28;20252;-85
2023/02/19 01:54:52;;;;;;;0.60;0.60;;;8.20;99.90;;;;;;5061066;28;20655;-85
2023/02/19 02:01:04;;;;;;;1.73;1.07;;;7.90;99.90;;;;;;5053413;28;20161;-86
2023/02/19 02:03:31;;;;;;;0.57;0.57;;;7.90;99.90;;;;;;5053244;28;20241;-86
2023/02/19 02:06:03;;;;;;;0.83;0.83;;;7.90;99.90;;;;;;5051587;28;20284;-86
2023/02/19 02:16:00;;;;;;;1.40;1.30;;;8.00;99.90;;;;;;5053345;28;20212;-85
2023/02/19 02:22:43;;;;;;;0.13;0.13;;;7.90;99.90;;;;;;5052032;28;20231;-86
2023/02/19 02:33:28;;;;;;;1.27;0.47;;;7.90;99.90;;;;;;4988973;28;20226;-86
2023/02/19 02:36:11;;;;;;;0.70;0.70;;;7.80;99.90;;;;;;4977312;28;20191;-86
2023/02/19 02:38:40;;;;;;;1.33;0.90;;;7.70;99.90;;;;;;4992287;28;20227;-85
2023/02/19 02:41:07;;;;;;;0.87;0.87;;;7.60;99.90;;;;;;4975649;28;20594;-85
2023/02/19 02:55:51;;;;;;;0.37;0.37;;;7.50;99.90;;;;;;5004475;28;20194;-85
2023/02/19 02:59:07;;;;;;;1.13;1.07;;;7.50;99.90;;;;;;5003049;28;20305;-86
2023/02/19 03:02:10;;;;;;;1.07;1.03;;;7.50;99.90;;;;;;5014628;28;20179;-85
2023/02/19 03:08:33;;;;;;;6.10;0.67;;;7.50;99.90;;;;;;5014441;28;20226;-86
2023/02/19 03:21:01;;;;;;;0.60;0.60;;;7.50;99.90;;;;;;5014184;28;20273;-86
2023/02/19 03:26:31;;;;;;;0.40;0.40;;;7.40;99.90;;;;;;5010920;28;20822;-86
2023/02/19 03:31:44;;;;;;;0.50;0.50;;;7.50;99.90;;;;;;5041037;28;20166;-85
2023/02/19 03:34:18;;;;;;;0.40;0.40;;;7.50;99.90;;;;;;5055736;28;20218;-85
2023/02/19 03:39:55;;;;;;;1.80;1.30;;;7.30;99.90;;;;;;5055325;28;20297;-85
2023/02/19 03:42:40;;;;;;;0.50;0.50;;;7.20;99.90;;;;;;5005154;28;20217;-85
2023/02/19 03:48:34;;;;;;;2.53;0.87;;;7.10;99.90;;;;;;5004934;28;20609;-85
2023/02/19 03:51:08;;;;;;;1.43;1.33;;;7.10;99.90;;;;;;5054369;28;20170;-85
2023/02/19 03:54:21;;;;;;;0.90;0.90;;;7.10;99.90;;;;;;4993937;28;20191;-86
2023/02/19 03:56:52;;;;;;;0.77;0.70;;;7.10;99.90;;;;;;5053553;28;20217;-86
2023/02/19 03:59:42;;;;;;;0.97;0.87;;;7.00;99.90;;;;;;5055643;28;20178;-87
2023/02/19 04:02:15;;;;;;;1.17;1.13;;;7.00;99.90;;;;;;5054168;28;20235;-85
2023/02/19 04:05:03;;;;;;;2.07;1.23;;;7.00;99.90;;;;;;5055305;28;20201;-85
2023/02/19 04:07:34;;;;;;;0.90;0.90;;;6.90;99.90;;;;;;5053975;28;20197;-85
2023/02/19 04:10:01;;;;;;;0.40;0.40;;;6.90;99.90;;;;;;5053391;28;20235;-86
2023/02/19 04:12:28;;;;;;;1.20;1.03;;;6.90;99.90;;;;;;5053278;28;20221;-86
2023/02/19 04:15:02;;;;;;;1.63;0.67;;;6.90;99.90;;;;;;5053283;28;20631;-85
2023/02/19 04:17:37;;;;;;;1.10;0.40;;;7.00;99.90;;;;;;5054554;28;20226;-85
2023/02/19 04:20:07;;;;;;;0.50;0.50;;;7.00;99.90;;;;;;5052896;28;20237;-85
2023/02/19 04:22:35;;;;;;;1.03;1.03;;;7.00;99.90;;;;;;5054840;28;20250;-85
2023/02/19 04:25:00;;;;;;;1.47;0.70;;;7.00;99.90;;;;;;5036324;28;20228;-86
2023/02/19 04:27:26;;;;;;;1.17;1.07;;;6.90;99.90;;;;;;5036396;28;20642;-86
2023/02/19 04:29:52;;;;;;;0.20;0.20;;;6.90;99.90;;;;;;5052650;28;20326;-86
2023/02/19 04:32:18;;;;;;;0.60;0.33;;;7.00;99.90;;;;;;5052960;28;20221;-85
2023/02/19 04:34:44;;;;;;;0.40;0.40;;;7.00;99.90;;;;;;5036545;28;20537;-85
2023/02/19 04:37:10;;;;;;;0.97;0.40;;;6.90;99.90;;;;;;5053419;28;20204;-85
2023/02/19 04:39:36;;;;;;;0.30;0.30;;;6.80;99.90;;;;;;5053417;28;20699;-86
2023/02/19 04:42:02;;;;;;;0.20;0.20;;;6.80;99.90;;;;;;5036199;28;20213;-86
2023/02/19 04:44:28;;;;;;;0.40;0.40;;;6.80;99.90;;;;;;5052674;28;20234;-86
2023/02/19 04:46:54;;;;;;;0.43;0.43;;;6.80;99.90;;;;;;5051812;28;20265;-87
2023/02/19 04:49:19;;;;;;;0.20;0.20;;;6.90;99.90;;;;;;5035425;28;20241;-87
2023/02/19 04:51:45;;;;;;;0.30;0.30;;;6.90;99.90;;;;;;5051204;28;20713;-86
2023/02/19 04:54:11;;;;;;;0.20;0.20;;;7.00;99.90;;;;;;5051539;28;20561;-85
2023/02/19 04:56:38;;;;;;;0.70;0.70;;;7.00;99.90;;;;;;5051866;28;20733;-85
2023/02/19 04:59:03;;;;;;;5.83;1.03;;;6.90;99.90;;;;;;5051717;28;20654;-85
2023/02/19 05:01:29;;;;;;;0.70;0.70;;;6.90;99.90;;;;;;5052725;28;20182;-85
2023/02/19 05:03:55;;;;;;;0.20;0.20;;;6.90;99.90;;;;;;5051930;28;20691;-86
2023/02/19 05:06:21;;;;;;;0.50;0.30;;;6.80;99.90;;;;;;5052021;28;20224;-85
2023/02/19 05:08:46;;;;;;;0.20;0.20;;;6.80;99.90;;;;;;5051459;28;20218;-85
2023/02/19 05:11:12;;;;;;;0.67;0.50;;;6.70;99.90;;;;;;5019517;28;20299;-84
2023/02/19 05:13:39;;;;;;;0.20;0.20;;;6.70;99.90;;;;;;5036358;28;20182;-84
2023/02/19 05:16:14;;;;;;;0.20;0.20;;;6.70;99.90;;;;;;5052710;28;20166;-84
2023/02/19 05:19:02;;;;;;;0.33;0.33;;;6.70;99.90;;;;;;5057451;28;20224;-84
2023/02/19 05:21:27;;;;;;;0.40;0.40;;;6.80;99.90;;;;;;5052202;28;20220;-84
2023/02/19 05:23:53;;;;;;;0.20;0.20;;;6.70;99.90;;;;;;5053065;28;20606;-84
2023/02/19 05:26:21;;;;;;;0.20;0.20;;;6.70;99.90;;;;;;5052918;28;20568;-84
2023/02/19 05:28:49;;;;;;;0.47;0.47;;;6.70;99.90;;;;;;5052228;28;20258;-83
2023/02/19 05:32:11;;;;;;;0.90;0.90;;;6.60;99.90;;;;;;5052562;28;20178;-83
2023/02/19 05:42:31;;;;;;;0.20;0.20;;;6.60;99.90;;;;;;5056862;28;20233;-84
2023/02/19 05:48:40;;;;;;;0.73;0.37;;;6.60;99.90;;;;;;5053803;28;20385;-84
2023/02/19 05:51:09;;;;;;;0.30;0.30;;;6.70;99.90;;;;;;5053743;28;20241;-84
2023/02/19 05:53:35;;;;;;;11.97;0.73;;;6.70;99.90;;;;;;5052251;28;20162;-84
2023/02/19 05:56:59;;;;;;;0.30;0.30;;;6.70;99.90;;;;;;5057896;28;20182;-83
2023/02/19 06:03:17;;;;;;;9.73;0.40;;;6.80;99.90;;;;;;5065310;28;20287;-84
2023/02/19 06:05:43;;;;;;;0.20;0.20;;;6.80;99.90;;;;;;5052119;28;20185;-84
2023/02/19 06:08:12;;;;;;;0.20;0.20;;;6.80;99.90;;;;;;5054662;28;20713;-83
2023/02/19 06:11:27;;;;;;;0.20;0.20;;;6.70;99.90;;;;;;5051808;28;20167;-84
2023/02/19 06:17:51;;;;;;;0.10;0.10;;;6.50;99.90;;;;;;5053289;28;20189;-84
2023/02/19 06:20:17;;;;;;;0.20;0.20;;;6.40;99.90;;;;;;5020748;28;20215;-84
2023/02/19 06:22:42;;;;;;;0.20;0.20;;;6.50;99.90;;;;;;5038537;28;20170;-83
2023/02/19 06:25:11;;;;;;;0.20;0.20;;;6.50;99.90;;;;;;5056036;28;20635;-84
2023/02/19 06:31:20;;;;;;;1.07;0.97;;;6.40;99.90;;;;;;5056933;28;20301;-84
2023/02/19 06:33:46;;;;;;;0.20;0.20;;;6.40;99.90;;;;;;5054846;28;20225;-85
2023/02/19 06:36:14;;;;;;;0.30;0.30;;;6.40;99.90;;;;;;5055139;28;20651;-85
2023/02/19 06:38:41;;;;;;;0.27;0.23;;;6.40;99.90;;;;;;5056226;28;20225;-85
2023/02/19 06:41:08;;;;;;;0.20;0.20;;;6.40;99.90;;;;;;5055923;28;20217;-84
2023/02/19 06:43:34;;;;;;;0.20;0.20;;;6.40;99.90;;;;;;5038450;28;20213;-84
2023/02/19 06:46:02;;;;;;;0.30;0.30;;;6.40;99.90;;;;;;5021686;28;20299;-85
2023/02/19 06:48:29;;;;;;;0.10;0.10;;;6.40;99.90;;;;;;5054861;28;20276;-86
2023/02/19 06:50:55;;;;;;;0.20;0.20;;;6.40;99.90;;;;;;5054716;28;20226;-84
2023/02/19 06:53:21;;;;;;;0.20;0.20;;;6.40;99.90;;;;;;5054685;28;20229;-85
2023/02/19 06:55:56;;;;;;;0.20;0.20;;;6.50;99.90;;;;;;5055652;28;20174;-85
2023/02/19 06:58:26;;;;;;;0.10;0.10;;;6.50;99.90;;;;;;5055759;28;20178;-84
2023/02/19 07:00:52;;;;;;;0.20;0.20;;;6.50;99.90;;;;;;5054289;28;20304;-85
2023/02/19 07:03:18;;;;;;;0.20;0.20;;;6.50;99.90;;;;;;5054500;28;20233;-84
2023/02/19 07:05:44;;;;;;;0.23;0.23;;;6.60;99.90;;;;;;5037921;28;20583;-84
2023/02/19 07:08:09;;;;;;;0.20;0.20;;;6.60;99.90;;;;;;5037274;28;20637;-84
2023/02/19 07:10:35;;;;;;;9.13;0.40;;;6.60;99.90;;;;;;5054022;28;20245;-86
2023/02/19 07:13:01;;;;;;;0.20;0.20;;;6.70;99.90;;;;;;5035919;28;20260;-88
2023/02/19 07:15:26;;;;;;;0.23;0.23;;;6.70;99.90;;;;;;5053104;28;20226;-85
2023/02/19 07:17:52;;;;;;;0.20;0.20;;;6.60;99.90;;;;;;5052333;28;20218;-84
2023/02/19 07:20:18;;;;;;;0.20;0.20;;;6.60;99.90;;;;;;5054203;28;20217;-88
2023/02/19 07:22:44;;;;;;;0.63;0.63;;;6.50;99.90;;;;;;5036313;28;20557;-87
2023/02/19 07:25:09;;;;;;;0.20;0.20;;;6.60;99.90;;;;;;5020190;28;20178;-86
2023/02/19 07:27:36;;;;;;;0.37;0.37;;;6.70;99.90;;;;;;5053447;28;20685;-86
2023/02/19 07:30:02;;;;;;;1.20;0.63;;;7.40;99.90;;;;;;5052169;28;20629;-89
2023/02/19 07:32:28;;;;;;;0.50;0.50;;;8.50;99.90;;;;;;5052234;28;20214;-90
2023/02/19 07:34:54;;;;;;;0.30;0.30;;;9.40;99.90;;;;;;5018476;28;20572;-87
2023/02/19 07:37:20;;;;;;;0.63;0.40;;;10.50;99.90;;;;;;5052537;28;20631;-88
2023/02/19 07:39:45;;;;;;;1.70;0.57;;;11.60;99.90;;;;;;5054418;28;20874;-85
2023/02/19 07:42:11;;;;;;;0.87;0.87;;;12.00;99.90;;;;;;5052978;28;20214;-85
2023/02/19 07:44:37;;;;;;;3.23;0.67;;;12.00;99.90;;;;;;5021070;28;20233;-84
2023/02/19 07:47:03;;;;;;;0.20;0.20;;;11.80;99.90;;;;;;5053598;28;20217;-84
2023/02/19 07:49:29;;;;;;;0.30;0.30;;;10.90;99.90;;;;;;5004356;28;20229;-84
2023/02/19 07:52:00;;;;;;;0.20;0.20;;;10.50;99.90;;;;;;5019030;28;20299;-84
2023/02/19 07:54:26;;;;;;;0.20;0.20;;;10.00;99.90;;;;;;5037428;28;20186;-84
2023/02/19 07:56:52;;;;;;;0.93;0.67;;;9.70;99.90;;;;;;5038058;28;20222;-85
2023/02/19 07:59:20;;;;;;;0.10;0.10;;;9.40;99.90;;;;;;5020632;28;20234;-84
2023/02/19 08:08:38;;;;;;;0.20;0.20;;;8.80;99.90;;;;;;5054294;28;20232;-85
2023/02/19 08:14:10;;;;;;;0.60;0.60;;;8.60;99.90;;;;;;5054493;28;20225;-84
2023/02/19 08:16:57;;;;;;;0.20;0.20;;;8.90;99.90;;;;;;5054160;28;20177;-84
2023/02/19 08:19:22;;;;;;;0.30;0.30;;;9.60;99.90;;;;;;5051444;28;20225;-84
2023/02/19 08:21:49;;;;;;;0.33;0.33;;;9.90;99.90;;;;;;5053787;28;20551;-84
2023/02/19 08:24:16;;;;;;;0.63;0.53;;;10.60;99.90;;;;;;5054113;28;20228;-84
2023/02/19 08:30:43;;;;;;;0.50;0.50;;;11.00;99.90;;;;;;5054711;28;20245;-85
2023/02/19 08:33:10;;;;;;;6.90;1.13;;;11.10;99.90;;;;;;5056195;28;20259;-84
2023/02/19 08:35:36;;;;;;;0.40;0.40;;;10.90;99.90;;;;;;5053050;28;20225;-85
2023/02/19 08:38:04;;;;;;;0.70;0.70;;;11.70;99.90;;;;;;5053406;28;20204;-85
2023/02/19 08:40:31;;;;;;;0.40;0.40;;;12.40;99.90;;;;;;5052967;28;20730;-85
2023/02/19 08:46:26;;;;;;;0.50;0.50;;;14.10;99.90;;;;;;4966946;28;20246;-85
2023/02/19 08:48:52;;;;;;;0.73;0.63;;;16.30;99.90;;;;;;4956463;28;20239;-85
2023/02/19 08:51:18;;;;;;;0.67;0.67;;;17.20;99.90;;;;;;4929440;28;20248;-86
2023/02/19 08:53:44;;;;;;;0.50;0.40;;;16.80;99.90;;;;;;4955630;28;20259;-88
2023/02/19 08:56:13;;;;;;;0.87;0.50;;;15.80;99.90;;;;;;4976242;28;20225;-88
2023/02/19 08:58:39;;;;;;;0.57;0.50;;;13.90;99.90;;;;;;5038264;28;20225;-87
2023/02/19 09:01:14;;;;;;;0.23;0.23;;;12.50;99.90;;;;;;5032422;28;20233;-85
2023/02/19 09:03:40;;;;;;;0.50;0.50;;;11.90;99.90;;;;;;5050115;28;20682;-85
2023/02/19 09:06:06;;;;;;;1.30;0.53;;;11.30;99.90;;;;;;5050113;28;20218;-86
2023/02/19 09:08:32;;;;;;;0.43;0.43;;;10.50;99.90;;;;;;5049486;28;20301;-84
2023/02/19 09:11:03;;;;;;;0.47;0.30;;;9.60;99.90;;;;;;5045898;28;20268;-89
2023/02/19 09:13:29;;;;;;;0.50;0.50;;;9.40;99.90;;;;;;5049366;28;20257;-85
2023/02/19 09:15:55;;;;;;;0.40;0.40;;;9.20;99.90;;;;;;5048816;28;20706;-89
2023/02/19 09:18:22;;;;;;;0.10;0.10;;;9.50;99.90;;;;;;5048448;28;20218;-88
2023/02/19 09:20:48;;;;;;;0.13;0.13;;;9.30;99.90;;;;;;5049189;28;20264;-84
2023/02/19 09:23:14;;;;;;;0.10;0.10;;;8.80;99.90;;;;;;5050025;28;20718;-86
2023/02/19 09:25:40;;;;;;;0.10;0.10;;;8.50;99.90;;;;;;5032933;28;20750;-85
2023/02/19 09:28:05;;;;;;;0.97;0.30;;;8.50;99.90;;;;;;5031507;28;20241;-86
2023/02/19 09:30:31;;;;;;;0.10;0.10;;;8.30;99.90;;;;;;5048435;28;20622;-85
2023/02/19 09:32:57;;;;;;;0.10;0.10;;;8.10;99.90;;;;;;5048305;28;20272;-88
2023/02/19 09:35:23;;;;;;;0.20;0.20;;;8.20;99.90;;;;;;5015617;28;20224;-85
2023/02/19 09:37:48;;;;;;;0.43;0.43;;;8.60;99.90;;;;;;5031343;28;20215;-86
2023/02/19 09:40:20;;;;;;;0.33;0.33;;;8.60;99.90;;;;;;5048525;28;20178;-85
2023/02/19 09:42:47;;;;;;;0.20;0.20;;;8.70;99.90;;;;;;5048416;28;20221;-88
2023/02/19 09:45:21;;;;;;;7.50;1.43;;;8.80;99.90;;;;;;5047894;28;20232;-88
2023/02/19 09:47:47;;;;;;;1.10;0.97;;;8.80;99.90;;;;;;5048356;28;20217;-88
2023/02/19 09:50:19;;;;;;;0.17;0.17;;;8.90;99.90;;;;;;5031710;28;20275;-89
2023/02/19 09:52:55;;;;;;;0.20;0.20;;;8.90;99.90;;;;;;5049316;28;20221;-85
2023/02/19 09:55:33;;;;;;;0.77;0.37;;;9.00;99.90;;;;;;5048657;28;20205;-88
2023/02/19 09:58:02;;;;;;;0.20;0.20;;;9.40;99.90;;;;;;5049523;28;20214;-87
2023/02/19 10:00:34;;;;;;;0.20;0.20;;;9.40;99.90;;;;;;5047754;28;20220;-86
2023/02/19 10:03:09;;;;;;;0.33;0.23;;;9.10;99.90;;;;;;5048001;28;20228;-84
2023/02/19 10:05:38;;;;;;;0.10;0.10;;;9.10;99.90;;;;;;5048122;28;20217;-88
2023/02/19 10:08:11;;;;;;;0.30;0.30;;;9.00;99.90;;;;;;5047876;28;20233;-85
2023/02/19 10:10:37;;;;;;;0.20;0.20;;;9.20;99.90;;;;;;5048810;28;20166;-85
2023/02/19 10:13:12;;;;;;;0.40;0.40;;;9.20;99.90;;;;;;5015106;28;20221;-86
2023/02/19 10:15:44;;;;;;;0.53;0.33;;;9.10;99.90;;;;;;5048242;28;20568;-85
2023/02/19 10:18:10;;;;;;;0.10;0.10;;;9.00;99.90;;;;;;5049213;28;20232;-84
2023/02/19 10:20:36;;;;;;;0.50;0.50;;;8.80;99.90;;;;;;5047597;28;20218;-89
2023/02/19 10:23:05;;;;;;;0.17;0.17;;;9.10;99.90;;;;;;5047803;28;20240;-85
2023/02/19 10:25:33;;;;;;;0.17;0.17;;;9.20;99.90;;;;;;5049476;28;20210;-84
2023/02/19 10:28:00;;;;;;;0.10;0.10;;;9.10;99.90;;;;;;5049059;28;20236;-85
2023/02/19 10:30:32;;;;;;;0.20;0.20;;;9.00;99.90;;;;;;5048925;28;20240;-86
2023/02/19 10:33:18;;;;;;;1.17;0.53;;;9.10;99.90;;;;;;5048040;28;20305;-89
2023/02/19 10:35:54;;;;;;;3.43;0.73;;;8.90;99.90;;;;;;5049017;28;20408;-86
2023/02/19 10:38:27;;;;;;;0.17;0.17;;;8.90;99.90;;;;;;5049086;28;20224;-91
2023/02/19 10:41:12;;;;;;;0.97;0.50;;;8.80;99.90;;;;;;5032144;28;20174;-86
2023/02/19 10:43:42;;;;;;;3.20;0.37;;;8.70;99.90;;;;;;5047478;28;20197;-89
2023/02/19 10:46:22;;;;;;;0.20;0.20;;;8.60;99.90;;;;;;5048657;28;20706;-89
2023/02/19 10:49:00;;;;;;;0.10;0.10;;;8.90;99.90;;;;;;5047664;28;20416;-90
2023/02/19 10:51:38;;;;;;;0.97;0.53;;;9.10;99.90;;;;;;5046780;28;20321;-86
2023/02/19 10:54:16;;;;;;;0.10;0.10;;;9.40;99.90;;;;;;5047331;28;20231;-85
2023/02/19 10:56:42;;;;;;;0.27;0.27;;;9.60;99.90;;;;;;5048732;28;20225;-86
2023/02/19 10:59:16;;;;;;;0.30;0.30;;;9.30;99.90;;;;;;5031337;28;20549;-89
2023/02/19 11:02:02;;;;;;;0.20;0.20;;;9.50;99.90;;;;;;5048043;28;20166;-86
2023/02/19 11:04:33;;;;;;;0.20;0.20;;;10.00;99.90;;;;;;5032149;28;20234;-86
2023/02/19 11:07:29;;;;;;;0.30;0.30;;;9.90;99.90;;;;;;5050232;28;20225;-89
2023/02/19 11:09:55;;;;;;;0.27;0.27;;;10.70;99.90;;;;;;5029674;28;20639;-88
2023/02/19 11:12:27;;;;;;;0.30;0.27;;;10.80;99.90;;;;;;5018220;28;20217;-86
2023/02/19 11:14:53;;;;;;;0.10;0.10;;;10.70;99.90;;;;;;5051066;28;20224;-87
2023/02/19 11:17:25;;;;;;;0.90;0.50;;;10.20;99.90;;;;;;5050645;28;20417;-87
2023/02/19 11:20:03;;;;;;;0.53;0.30;;;10.40;99.90;;;;;;5050986;28;20182;-85
2023/02/19 11:22:45;;;;;;;0.10;0.10;;;11.10;99.90;;;;;;5051387;28;20167;-89
2023/02/19 11:25:15;;;;;;;2.00;1.23;;;11.10;99.90;;;;;;5051167;28;20289;-89
2023/02/19 11:28:07;;;;;;;1.53;0.33;;;10.80;99.90;;;;;;5050853;28;20294;-89
2023/02/19 11:30:36;;;;;;;1.23;0.10;;;11.40;99.90;;;;;;5050419;28;20362;-84
2023/02/19 11:33:23;;;;;;;0.77;0.77;;;10.90;99.90;;;;;;5051842;28;20217;-86
2023/02/19 11:35:59;;;;;;;0.30;0.30;;;10.10;99.90;;;;;;5050380;28;20828;-87
2023/02/19 11:38:25;;;;;;;0.27;0.27;;;9.50;99.90;;;;;;5050635;28;20206;-84
2023/02/19 11:41:09;;;;;;;1.20;1.20;;;9.80;99.90;;;;;;5050128;28;20771;-87
2023/02/19 11:43:40;;;;;;;3.40;0.23;;;10.50;99.90;;;;;;5050959;28;20254;-84
2023/02/19 11:46:31;;;;;;;0.10;0.10;;;11.30;99.90;;;;;;5049864;28;20633;-86
2023/02/19 11:49:16;;;;;;;0.80;0.40;;;11.30;99.90;;;;;;5050015;28;20245;-88
2023/02/19 11:52:00;;;;;;;0.20;0.20;;;11.40;99.90;;;;;;5051188;28;20709;-86
2023/02/19 11:54:49;;;;;;;0.37;0.20;;;11.10;99.90;;;;;;5051058;28;20698;-86
2023/02/19 11:57:30;;;;;;;1.73;1.00;;;10.30;99.90;;;;;;5049774;28;20221;-86
2023/02/19 12:00:17;;;;;;;0.77;0.40;;;9.70;99.90;;;;;;5050029;28;20302;-86
2023/02/19 12:03:01;;;;;;;0.17;0.17;;;9.40;99.90;;;;;;5050307;28;20224;-86
2023/02/19 12:05:45;;;;;;;0.33;0.33;;;9.10;99.90;;;;;;5049946;28;20225;-88
2023/02/19 12:08:24;;;;;;;0.10;0.10;;;9.40;99.90;;;;;;5050208;28;20606;-86
2023/02/19 12:11:23;;;;;;;0.33;0.30;;;10.00;99.90;;;;;;5049980;28;20174;-85
2023/02/19 12:14:03;;;;;;;0.10;0.10;;;10.50;99.90;;;;;;5049889;28;20197;-86
2023/02/19 12:16:51;;;;;;;0.30;0.30;;;10.40;99.90;;;;;;5049681;28;20170;-87
2023/02/19 12:19:43;;;;;;;1.70;0.57;;;9.80;99.90;;;;;;5049633;28;20316;-89
2023/02/19 12:22:38;;;;;;;2.27;0.40;;;9.80;99.90;;;;;;5049156;28;20206;-87
2023/02/19 12:25:15;;;;;;;0.10;0.10;;;9.50;99.90;;;;;;5048319;28;20728;-87
2023/02/19 12:28:05;;;;;;;0.50;0.50;;;9.40;99.90;;;;;;5048381;28;20220;-90
2023/02/19 12:30:56;;;;;;;0.20;0.20;;;9.20;99.90;;;;;;5050296;28;20226;-87
2023/02/19 12:33:55;;;;;;;0.10;0.10;;;9.30;99.90;;;;;;5049945;28;20256;-85
2023/02/19 12:36:49;;;;;;;0.10;0.10;;;9.10;99.90;;;;;;5051614;28;20296;-84
2023/02/19 12:39:33;;;;;;;8.10;1.70;;;9.00;99.90;;;;;;5050383;28;20206;-84
2023/02/19 12:42:05;;;;;;;0.40;0.40;;;9.10;99.90;;;;;;5049823;28;20221;-84
2023/02/19 12:44:46;;;;;;;0.20;0.20;;;9.00;99.90;;;;;;5050077;28;20234;-84
2023/02/19 12:47:21;;;;;;;0.27;0.27;;;9.00;99.90;;;;;;5049424;28;20229;-85
2023/02/19 12:49:55;;;;;;;0.40;0.40;;;9.00;99.90;;;;;;5050561;28;20178;-86
2023/02/19 12:52:26;;;;;;;0.20;0.20;;;9.00;99.90;;;;;;5049031;28;20225;-88
2023/02/19 12:54:56;;;;;;;0.20;0.20;;;8.90;99.90;;;;;;5047253;28;20754;-85
2023/02/19 12:57:28;;;;;;;0.10;0.10;;;8.90;99.90;;;;;;5047621;28;20220;-84
2023/02/19 13:00:06;;;;;;;0.10;0.10;;;8.90;99.90;;;;;;5047948;28;20225;-86
2023/02/19 13:02:59;;;;;;;0.23;0.23;;;8.80;99.90;;;;;;5048020;28;20298;-85
2023/02/19 13:05:39;;;;;;;0.20;0.20;;;8.90;99.90;;;;;;5048603;28;20250;-84
2023/02/19 13:08:13;;;;;;;0.20;0.20;;;8.90;99.90;;;;;;5047555;28;20244;-83
2023/02/19 13:10:45;;;;;;;16.83;0.70;;;8.90;99.90;;;;;;5047958;28;20228;-87
2023/02/19 13:13:25;;;;;;;0.17;0.17;;;8.90;99.90;;;;;;5047762;28;20216;-84
2023/02/19 13:15:59;;;;;;;0.10;0.10;;;8.70;99.90;;;;;;5046936;28;20255;-90
2023/02/19 13:18:58;;;;;;;0.17;0.17;;;8.70;99.90;;;;;;5046762;28;20256;-83
2023/02/19 13:24:29;;;;;;;0.10;0.10;;;8.80;99.90;;;;;;5048795;28;20221;-86
2023/02/19 13:27:29;;;;;;;0.70;0.70;;;8.80;99.90;;;;;;5047319;28;20268;-86
2023/02/19 13:30:07;;;;;;;0.20;0.20;;;8.90;99.90;;;;;;5045306;28;20482;-87
2023/02/19 13:32:33;;;;;;;0.20;0.20;;;8.70;99.90;;;;;;5046398;28;20463;-89
2023/02/19 13:35:02;;;;;;;0.63;0.30;;;8.70;99.90;;;;;;5047514;28;20648;-85
2023/02/19 13:37:33;;;;;;;0.30;0.30;;;8.90;99.90;;;;;;5047794;28;20230;-85
2023/02/19 13:40:05;;;;;;;0.10;0.10;;;9.00;99.90;;;;;;5048501;28;20214;-85
2023/02/19 13:42:33;;;;;;;0.30;0.30;;;8.90;99.90;;;;;;5049787;28;20302;-84
2023/02/19 13:45:01;;;;;;;1.17;0.77;;;9.00;99.90;;;;;;5051370;28;20226;-86
2023/02/19 13:47:47;;;;;;;0.20;0.20;;;9.00;99.90;;;;;;5050197;28;20214;-88
2023/02/19 13:50:31;;;;;;;0.20;0.20;;;9.00;99.90;;;;;;5050426;28;20226;-84
2023/02/19 13:52:59;;;;;;;0.67;0.67;;;8.80;99.90;;;;;;5050630;28;20229;-86
2023/02/19 13:56:02;;;;;;;0.30;0.30;;;8.80;99.90;;;;;;5051673;28;20183;-84
2023/02/19 14:02:20;;;;;;;0.70;0.40;;;9.00;99.90;;;;;;4988089;28;20226;-85
2023/02/19 14:04:49;;;;;;;0.63;0.63;;;9.20;99.90;;;;;;5050430;28;20218;-85
2023/02/19 14:07:14;;;;;;;0.97;0.60;;;9.50;99.90;;;;;;5052843;28;20197;-85
2023/02/19 14:09:43;;;;;;;0.20;0.20;;;9.50;99.90;;;;;;5051146;28;20167;-84
2023/02/19 14:12:09;;;;;;;0.37;0.37;;;9.40;99.90;;;;;;5052378;28;20225;-84
2023/02/19 14:14:47;;;;;;;0.30;0.30;;;9.40;99.90;;;;;;5052323;28;20229;-85
2023/02/19 14:17:34;;;;;;;0.80;0.40;;;9.30;99.90;;;;;;5034192;28;20278;-86
2023/02/19 14:20:09;;;;;;;0.33;0.33;;;9.30;99.90;;;;;;5048896;28;20218;-84
2023/02/19 14:22:47;;;;;;;0.20;0.20;;;9.40;99.90;;;;;;5051637;28;20631;-87
2023/02/19 14:28:52;;;;;;;0.70;0.60;;;9.40;99.90;;;;;;5051684;28;20220;-85
2023/02/19 14:31:43;;;;;;;3.80;0.97;;;9.50;99.90;;;;;;5017956;28;20174;-87
2023/02/19 14:34:26;;;;;;;0.10;0.10;;;9.50;99.90;;;;;;5050477;28;20309;-91
2023/02/19 14:36:55;;;;;;;0.50;0.50;;;9.30;99.90;;;;;;5049911;28;20222;-87
2023/02/19 14:39:36;;;;;;;3.80;0.47;;;9.10;99.90;;;;;;5049759;28;20214;-86
2023/02/19 14:42:10;;;;;;;0.40;0.30;;;9.20;99.90;;;;;;5053004;28;20220;-89
2023/02/19 14:44:49;;;;;;;0.27;0.27;;;9.30;99.90;;;;;;5054314;28;20225;-86
2023/02/19 14:47:18;;;;;;;0.53;0.53;;;9.10;99.90;;;;;;5052587;28;20229;-87
2023/02/19 14:53:15;;;;;;;0.20;0.20;;;9.10;99.90;;;;;;5029278;28;20247;-88
2023/02/19 14:55:42;;;;;;;8.07;1.33;;;8.90;99.90;;;;;;5055496;28;20257;-86
2023/02/19 14:58:16;;;;;;;0.20;0.20;;;8.90;99.90;;;;;;5038668;28;20566;-88
2023/02/19 15:00:42;;;;;;;2.63;0.40;;;8.80;99.90;;;;;;5055920;28;20209;-86
2023/02/19 15:03:27;;;;;;;6.50;1.07;;;8.90;99.90;;;;;;5056639;28;20162;-86
2023/02/19 15:06:03;;;;;;;0.20;0.20;;;9.10;99.90;;;;;;5056843;28;20286;-87
2023/02/19 15:08:34;;;;;;;1.23;0.53;;;9.30;99.90;;;;;;5055321;28;20213;-87
2023/02/19 15:11:01;;;;;;;0.30;0.30;;;9.20;99.90;;;;;;5052499;28;20620;-85
2023/02/19 15:13:29;;;;;;;0.30;0.30;;;9.10;99.90;;;;;;5053981;28;20185;-86
2023/02/19 15:15:56;;;;;;;0.77;0.47;;;9.10;99.90;;;;;;5054855;28;20340;-86
2023/02/19 15:18:28;;;;;;;0.93;0.50;;;9.10;99.90;;;;;;5054255;28;20304;-85
2023/02/19 15:21:01;;;;;;;0.23;0.23;;;9.10;99.90;;;;;;5054673;28;20303;-85
2023/02/19 15:27:22;;;;;;;2.47;0.40;;;9.40;99.90;;;;;;5054314;28;20287;-87
2023/02/19 15:29:50;;;;;;;1.03;0.83;;;9.20;99.90;;;;;;5057015;28;20225;-88
2023/02/19 15:32:20;;;;;;;1.13;0.73;;;9.20;99.90;;;;;;5051365;28;20221;-91
2023/02/19 15:34:56;;;;;;;2.13;0.50;;;9.10;99.90;;;;;;5055658;28;20178;-86
2023/02/19 15:37:34;;;;;;;0.77;0.20;;;9.20;99.90;;;;;;5054345;28;20220;-86
2023/02/19 15:40:06;;;;;;;3.73;0.37;;;9.00;99.90;;;;;;5039210;28;20166;-87
2023/02/19 15:42:35;;;;;;;1.10;1.03;;;9.00;99.90;;;;;;5055894;28;20166;-86
2023/02/19 15:45:30;;;;;;;2.63;0.60;;;8.90;99.90;;;;;;5052194;28;20225;-87
2023/02/19 15:51:49;;;;;;;0.93;0.90;;;8.60;99.90;;;;;;5004238;28;20224;-93
2023/02/19 15:54:18;;;;;;;1.37;1.37;;;8.20;99.90;;;;;;5049484;28;20616;-94
2023/02/19 15:56:48;;;;;;;0.20;0.20;;;8.10;99.90;;;;;;5053462;28;20283;-91